createdAt,value
2019-05-22T00:03:16.176Z,17.73
2019-05-22T00:08:23.607Z,16.77
2019-05-22T00:13:31.734Z,17.60
2019-05-22T00:18:37.475Z,18.37
2019-05-22T00:23:43.626Z,18.00
2019-05-22T00:28:47.854Z,17.90
2019-05-22T00:33:52.262Z,17.70
2019-05-22T00:38:57.560Z,18.73
2019-05-22T00:44:02.044Z,18.00
2019-05-22T00:49:10.792Z,16.90
2019-05-22T00:54:33.361Z,16.40
2019-05-22T00:59:50.988Z,16.20
2019-05-22T01:04:52.331Z,17.20
2019-05-22T01:09:55.958Z,15.50
2019-05-22T01:15:11.799Z,15.20
2019-05-22T01:20:17.686Z,16.07
2019-05-22T01:25:24.008Z,16.20
2019-05-22T01:30:42.000Z,15.63
2019-05-22T01:36:06.710Z,14.10
2019-05-22T01:41:29.887Z,14.20
2019-05-22T01:46:40.753Z,16.37
2019-05-22T01:51:46.579Z,16.90
2019-05-22T01:56:51.620Z,16.27
2019-05-22T02:02:04.542Z,16.00
2019-05-22T02:07:11.582Z,17.73
2019-05-22T02:12:19.917Z,17.00
2019-05-22T02:17:28.238Z,16.10
2019-05-22T02:22:35.132Z,15.10
2019-05-22T02:27:46.245Z,17.50
2019-05-22T02:32:53.916Z,17.00
2019-05-22T02:38:02.278Z,16.50
2019-05-22T02:43:08.210Z,17.10
2019-05-22T02:48:14.008Z,15.67
2019-05-22T02:53:20.872Z,17.53
2019-05-22T02:58:25.545Z,17.03
2019-05-22T03:03:30.697Z,16.70
2019-05-22T03:08:54.161Z,17.40
2019-05-22T03:14:04.604Z,17.90
2019-05-22T03:19:09.406Z,20.53
2019-05-22T03:24:13.285Z,18.60
2019-05-22T03:29:17.998Z,18.23
2019-05-22T03:34:21.767Z,21.20
2019-05-22T03:39:26.288Z,21.10
2019-05-22T03:44:30.460Z,19.53
2019-05-22T03:49:34.427Z,19.77
2019-05-22T03:54:39.080Z,20.23
2019-05-22T03:59:42.846Z,20.03
2019-05-22T04:04:48.525Z,20.40
2019-05-22T04:09:53.291Z,19.77
2019-05-22T04:14:57.443Z,20.63
2019-05-22T04:20:01.091Z,18.40
2019-05-22T04:25:08.401Z,24.10
2019-05-22T04:30:13.814Z,20.20
2019-05-22T04:35:19.213Z,18.33
2019-05-22T04:40:27.693Z,19.70
2019-05-22T04:45:33.232Z,17.10
2019-05-22T04:50:37.745Z,17.73
2019-05-22T04:55:41.486Z,19.00
2019-05-22T05:00:46.327Z,19.20
2019-05-22T05:05:54.241Z,21.10
2019-05-22T05:11:00.046Z,20.43
2019-05-22T05:16:04.199Z,19.60
2019-05-22T05:21:08.312Z,19.83
2019-05-22T05:26:12.073Z,21.17
2019-05-22T05:31:15.992Z,20.77
2019-05-22T05:36:20.402Z,22.43
2019-05-22T05:41:28.553Z,22.40
2019-05-22T05:46:32.441Z,23.90
2019-05-22T05:51:38.031Z,21.33
2019-05-22T05:56:46.019Z,20.90
2019-05-22T06:01:51.720Z,21.37
2019-05-22T06:07:00.745Z,21.50
2019-05-22T06:12:06.111Z,23.30
2019-05-22T06:17:26.682Z,21.63
2019-05-22T06:22:30.364Z,22.33
2019-05-22T06:27:43.171Z,21.00
2019-05-22T06:33:08.046Z,21.50
2019-05-22T06:38:31.253Z,21.50
2019-05-22T06:43:41.223Z,22.30
2019-05-22T06:48:45.666Z,19.83
2019-05-22T06:53:49.374Z,20.73
2019-05-22T06:58:53.007Z,20.83
2019-05-22T07:03:56.725Z,18.80
2019-05-22T07:09:00.416Z,20.00
2019-05-22T07:14:04.104Z,16.97
2019-05-22T07:19:10.417Z,18.63
2019-05-22T07:24:14.022Z,20.03
2019-05-22T07:29:18.072Z,16.83
2019-05-22T07:34:22.624Z,17.33
2019-05-22T07:39:26.490Z,18.10
2019-05-22T07:44:30.251Z,16.40
2019-05-22T07:49:34.880Z,14.80
2019-05-22T07:54:39.731Z,16.43
2019-05-22T07:59:43.999Z,14.27
2019-05-22T08:04:47.859Z,13.43
2019-05-22T08:09:51.886Z,14.97
2019-05-22T08:14:55.907Z,15.20
2019-05-22T08:19:59.610Z,14.03
2019-05-22T08:25:04.570Z,14.27
2019-05-22T08:30:09.909Z,11.83
2019-05-22T08:35:13.783Z,11.40
2019-05-22T08:40:18.861Z,12.53
2019-05-22T08:45:23.206Z,12.43
2019-05-22T08:50:27.371Z,11.10
2019-05-22T08:55:34.645Z,10.40
2019-05-22T09:00:38.979Z,10.70
2019-05-22T09:05:42.675Z,9.80
2019-05-22T09:10:47.013Z,8.43
2019-05-22T09:15:51.973Z,8.00
2019-05-22T09:20:57.158Z,8.10
2019-05-22T09:26:02.266Z,8.33
2019-05-22T09:31:05.964Z,8.30
2019-05-22T09:36:11.445Z,7.87
2019-05-22T09:41:15.299Z,8.10
2019-05-22T09:46:19.885Z,7.57
2019-05-22T09:51:24.018Z,7.90
2019-05-22T09:56:29.346Z,6.20
2019-05-22T10:01:32.970Z,6.73
2019-05-22T10:06:36.739Z,7.10
2019-05-22T10:11:40.472Z,7.90
2019-05-22T10:16:44.438Z,7.37
2019-05-22T10:21:49.660Z,7.53
2019-05-22T10:26:53.773Z,7.67
2019-05-22T10:31:57.380Z,7.00
2019-05-22T10:37:00.995Z,8.33
2019-05-22T10:42:25.502Z,6.97
2019-05-22T10:47:30.328Z,6.73
2019-05-22T10:52:34.847Z,5.87
2019-05-22T10:57:41.004Z,5.90
2019-05-22T11:02:44.264Z,5.43
2019-05-22T11:07:48.494Z,5.20
2019-05-22T11:12:52.597Z,4.00
2019-05-22T11:17:56.961Z,4.60
2019-05-22T11:23:01.212Z,3.83
2019-05-22T11:28:04.997Z,4.57
2019-05-22T11:33:09.379Z,4.60
2019-05-22T11:38:13.126Z,4.40
2019-05-22T11:43:17.566Z,3.20
2019-05-22T11:48:22.179Z,3.40
2019-05-22T11:53:25.791Z,3.53
2019-05-22T11:58:31.544Z,4.20
2019-05-22T12:03:36.289Z,5.80
2019-05-22T12:08:40.383Z,5.57
2019-05-22T12:13:45.214Z,6.10
2019-05-22T12:18:49.504Z,4.70
2019-05-22T12:23:53.613Z,4.70
2019-05-22T12:28:57.429Z,6.33
2019-05-22T12:34:01.818Z,6.63
2019-05-22T12:39:08.340Z,5.33
2019-05-22T12:44:12.699Z,4.33
2019-05-22T12:49:18.099Z,5.70
2019-05-22T12:54:23.203Z,6.60
2019-05-22T12:59:27.373Z,5.67
2019-05-22T13:04:31.994Z,4.50
2019-05-22T13:09:36.450Z,4.33
2019-05-22T13:14:40.971Z,3.80
2019-05-22T13:19:46.791Z,4.33
2019-05-22T13:24:51.303Z,3.73
2019-05-22T13:29:57.752Z,5.47
2019-05-22T13:35:02.557Z,5.67
2019-05-22T13:40:26.444Z,5.50
2019-05-22T13:45:28.757Z,6.60
2019-05-22T13:50:28.279Z,6.30
2019-05-22T13:55:30.432Z,5.60
2019-05-22T14:00:36.059Z,7.83
2019-05-22T14:05:41.869Z,7.70
2019-05-22T14:10:49.479Z,7.60
2019-05-22T14:15:56.502Z,6.60
2019-05-22T14:20:56.611Z,6.77
2019-05-22T14:26:00.374Z,7.33
2019-05-22T14:31:04.597Z,7.20
2019-05-22T14:36:09.366Z,6.50
2019-05-22T14:41:14.170Z,6.57
2019-05-22T14:46:17.859Z,5.33
2019-05-22T14:51:23.462Z,4.80
2019-05-22T14:56:27.135Z,4.53
2019-05-22T15:01:30.823Z,5.30
2019-05-22T15:06:34.422Z,4.90
2019-05-22T15:11:38.610Z,5.27
2019-05-22T15:16:42.356Z,5.10
2019-05-22T15:21:47.271Z,4.73
2019-05-22T15:26:51.320Z,4.43
2019-05-22T15:31:55.335Z,5.27
2019-05-22T15:36:59.550Z,4.80
2019-05-22T15:42:05.550Z,4.60
2019-05-22T15:47:09.454Z,4.23
2019-05-22T15:52:15.466Z,4.50
2019-05-22T15:57:20.785Z,5.50
2019-05-22T16:02:25.674Z,4.90
2019-05-22T16:07:30.588Z,4.67
2019-05-22T16:12:34.320Z,4.47
2019-05-22T16:17:41.561Z,5.00
2019-05-22T16:22:44.324Z,5.10
2019-05-22T16:27:48.460Z,4.90
2019-05-22T16:32:53.675Z,4.80
2019-05-22T16:37:58.416Z,5.90
2019-05-22T16:43:02.143Z,5.17
2019-05-22T16:48:07.277Z,4.50
2019-05-22T16:53:13.214Z,5.57
2019-05-22T16:58:16.980Z,5.27
2019-05-22T17:03:22.739Z,5.00
2019-05-22T17:08:29.051Z,4.97
2019-05-22T17:13:33.274Z,5.10
2019-05-22T17:18:46.907Z,5.40
2019-05-22T17:23:45.359Z,5.17
2019-05-22T17:28:49.293Z,5.10
2019-05-22T17:33:53.611Z,5.87
2019-05-22T17:38:58.018Z,5.87
2019-05-22T17:44:02.294Z,6.50
2019-05-22T17:49:06.709Z,6.80
2019-05-22T17:54:10.553Z,6.80
2019-05-22T17:59:14.640Z,7.03
2019-05-22T18:04:18.795Z,5.47
2019-05-22T18:09:22.490Z,6.10
2019-05-22T18:14:26.561Z,5.23
2019-05-22T18:19:30.504Z,4.60
2019-05-22T18:24:34.917Z,4.90
2019-05-22T18:29:38.626Z,5.23
2019-05-22T18:34:42.246Z,4.80
2019-05-22T18:39:46.104Z,4.90
2019-05-22T18:44:49.883Z,5.50
2019-05-22T18:49:53.930Z,5.67
2019-05-22T18:54:57.807Z,5.60
2019-05-22T19:00:05.686Z,5.47
2019-05-22T19:05:07.589Z,5.80
2019-05-22T19:10:12.514Z,5.53
2019-05-22T19:15:17.152Z,5.43
2019-05-22T19:20:21.506Z,7.40
2019-05-22T19:25:26.470Z,9.50
2019-05-22T19:30:31.032Z,7.03
2019-05-22T19:35:36.069Z,5.83
2019-05-22T19:40:39.655Z,7.27
2019-05-22T19:45:44.220Z,5.90
2019-05-22T19:50:48.169Z,5.00
2019-05-22T19:55:52.810Z,4.90
2019-05-22T20:00:57.067Z,4.73
2019-05-22T20:06:01.137Z,5.80
2019-05-22T20:11:05.395Z,7.90
2019-05-22T20:16:09.867Z,7.50
2019-05-22T20:21:13.534Z,5.30
2019-05-22T20:26:18.398Z,5.90
2019-05-22T20:31:22.306Z,5.20
2019-05-22T20:36:25.920Z,6.40
2019-05-22T20:41:30.154Z,5.93
2019-05-22T20:46:37.619Z,6.97
2019-05-22T20:51:40.122Z,6.57
2019-05-22T20:56:46.724Z,4.00
2019-05-22T21:01:50.599Z,4.50
2019-05-22T21:07:00.561Z,3.70
2019-05-22T21:12:06.887Z,4.23
2019-05-22T21:17:10.878Z,3.77
2019-05-22T21:22:18.403Z,3.50
2019-05-22T21:27:23.049Z,3.07
2019-05-22T21:32:38.947Z,3.23
2019-05-22T21:37:42.642Z,3.50
2019-05-22T21:42:52.331Z,3.57
2019-05-22T21:48:28.158Z,3.73
2019-05-22T21:53:10.624Z,3.70
2019-05-22T21:58:15.861Z,3.90
2019-05-22T22:03:27.554Z,5.60
2019-05-22T22:08:31.396Z,4.40
2019-05-22T22:13:37.387Z,4.43
2019-05-22T22:18:44.207Z,5.50
2019-05-22T22:23:48.131Z,5.20
2019-05-22T22:28:52.363Z,8.80
2019-05-22T22:34:00.695Z,6.80
2019-05-22T22:39:07.286Z,6.20
2019-05-22T22:44:11.270Z,7.40
2019-05-22T22:49:24.378Z,9.83
2019-05-22T22:54:28.797Z,9.30
2019-05-22T22:59:32.730Z,8.63
2019-05-22T23:04:41.514Z,7.90
2019-05-22T23:09:45.183Z,6.03
2019-05-22T23:14:52.461Z,6.40
2019-05-22T23:19:54.979Z,5.33
2019-05-22T23:25:01.061Z,4.80
2019-05-22T23:30:09.121Z,4.87
2019-05-22T23:35:16.331Z,4.83
2019-05-22T23:40:25.742Z,5.20
2019-05-22T23:45:29.371Z,5.10
2019-05-22T23:50:35.415Z,5.83
2019-05-22T23:55:46.839Z,5.40
